createdAt,value
2023-03-11T00:04:01.761Z,3.92
2023-03-11T00:09:05.350Z,1.55
2023-03-11T00:14:07.581Z,1.20
2023-03-11T00:19:11.300Z,3.20
2023-03-11T00:24:14.126Z,2.63
2023-03-11T00:29:16.271Z,4.97
2023-03-11T00:34:19.307Z,2.97
2023-03-11T00:39:21.519Z,2.03
2023-03-11T00:44:23.848Z,1.50
2023-03-11T00:49:26.054Z,2.78
2023-03-11T00:54:28.538Z,2.38
2023-03-11T00:59:30.683Z,1.33
2023-03-11T01:04:32.818Z,1.42
2023-03-11T01:09:35.090Z,1.92
2023-03-11T01:14:37.219Z,1.63
2023-03-11T01:19:39.430Z,2.38
2023-03-11T01:24:41.668Z,5.53
2023-03-11T01:29:43.839Z,2.60
2023-03-11T01:34:45.961Z,2.22
2023-03-11T01:39:48.164Z,2.03
2023-03-11T01:44:50.410Z,2.85
2023-03-11T01:49:53.012Z,2.60
2023-03-11T01:54:55.196Z,1.58
2023-03-11T02:00:01.788Z,0.95
2023-03-11T02:05:05.264Z,2.10
2023-03-11T02:10:09.007Z,2.53
2023-03-11T02:15:12.788Z,1.83
2023-03-11T02:20:41.039Z,2.55
2023-03-11T02:26:00.705Z,1.42
2023-03-11T02:31:03.871Z,1.83
2023-03-11T02:36:06.467Z,2.10
2023-03-11T02:41:09.093Z,2.55
2023-03-11T02:46:13.161Z,2.75
2023-03-11T02:51:15.906Z,1.48
2023-03-11T02:56:18.027Z,3.47
2023-03-11T03:01:20.260Z,1.77
2023-03-11T03:06:22.611Z,1.63
2023-03-11T03:11:24.888Z,3.70
2023-03-11T03:16:27.128Z,4.47
2023-03-11T03:21:29.351Z,3.38
2023-03-11T03:26:31.548Z,1.30
2023-03-11T03:31:33.726Z,0.85
2023-03-11T03:36:36.006Z,3.25
2023-03-11T03:41:38.837Z,1.80
2023-03-11T03:46:40.939Z,3.53
2023-03-11T03:51:43.111Z,1.73
2023-03-11T03:56:45.237Z,3.80
2023-03-11T04:01:47.387Z,2.88
2023-03-11T04:06:49.917Z,2.70
2023-03-11T04:11:52.096Z,1.67
2023-03-11T04:16:54.332Z,2.92
2023-03-11T04:21:56.774Z,6.07
2023-03-11T04:26:58.857Z,3.25
2023-03-11T04:32:02.672Z,1.58
2023-03-11T04:37:05.012Z,1.80
2023-03-11T04:42:07.371Z,5.22
2023-03-11T04:47:09.893Z,1.95
2023-03-11T04:52:12.755Z,6.15
2023-03-11T04:57:14.928Z,3.58
2023-03-11T05:02:17.065Z,2.65
2023-03-11T05:07:19.266Z,3.10
2023-03-11T05:12:21.379Z,2.22
2023-03-11T05:17:25.157Z,3.05
2023-03-11T05:22:27.725Z,5.30
2023-03-11T05:27:29.913Z,2.83
2023-03-11T05:32:32.171Z,2.45
2023-03-11T05:37:35.667Z,6.47
2023-03-11T05:42:38.352Z,1.67
2023-03-11T05:47:42.608Z,5.93
2023-03-11T05:52:44.895Z,5.70
2023-03-11T05:57:47.027Z,4.18
2023-03-11T06:02:49.260Z,14.80
2023-03-11T06:07:51.467Z,3.30
2023-03-11T06:12:53.565Z,4.65
2023-03-11T06:17:55.742Z,15.18
2023-03-11T06:22:57.978Z,4.00
2023-03-11T06:28:00.121Z,2.78
2023-03-11T06:33:02.472Z,2.05
2023-03-11T06:38:04.734Z,1.83
2023-03-11T06:43:06.926Z,6.88
2023-03-11T06:48:09.088Z,3.10
2023-03-11T06:53:11.512Z,3.58
2023-03-11T06:58:14.493Z,2.78
2023-03-11T07:03:16.750Z,5.97
2023-03-11T07:08:19.833Z,4.85
2023-03-11T07:13:22.072Z,2.30
2023-03-11T07:18:24.329Z,3.22
2023-03-11T07:23:27.342Z,1.60
2023-03-11T07:28:30.318Z,5.30
2023-03-11T07:33:34.264Z,3.95
2023-03-11T07:38:36.931Z,1.80
2023-03-11T07:43:40.514Z,7.53
2023-03-11T07:48:43.166Z,3.30
2023-03-11T07:53:46.389Z,1.10
2023-03-11T07:58:48.672Z,1.65
2023-03-11T08:03:57.574Z,2.20
2023-03-11T08:09:00.959Z,5.70
2023-03-11T08:14:04.457Z,3.22
2023-03-11T08:19:06.707Z,1.20
2023-03-11T08:24:12.273Z,1.60
2023-03-11T08:29:15.285Z,1.42
2023-03-11T08:34:18.481Z,2.08
2023-03-11T08:39:21.623Z,1.98
2023-03-11T08:44:24.412Z,3.17
2023-03-11T08:49:27.481Z,2.83
2023-03-11T08:54:30.862Z,3.25
2023-03-11T08:59:33.380Z,4.57
2023-03-11T09:04:35.550Z,4.60
2023-03-11T09:09:38.346Z,6.93
2023-03-11T09:14:44.357Z,1.80
2023-03-11T09:19:46.713Z,4.20
2023-03-11T09:24:48.974Z,3.63
2023-03-11T09:29:51.209Z,6.38
2023-03-11T09:34:53.397Z,3.38
2023-03-11T09:39:55.589Z,3.85
2023-03-11T09:45:25.229Z,2.92
2023-03-11T09:50:31.376Z,2.83
2023-03-11T09:55:52.693Z,2.85
2023-03-11T10:00:55.754Z,4.82
2023-03-11T10:06:07.104Z,3.58
2023-03-11T10:11:45.225Z,5.07
2023-03-11T10:16:58.277Z,4.03
2023-03-11T10:22:21.327Z,5.15
2023-03-11T10:27:31.562Z,4.45
2023-03-11T10:33:04.432Z,3.95
2023-03-11T10:38:17.339Z,6.20
2023-03-11T10:43:25.379Z,4.32
2023-03-11T10:48:27.853Z,6.82
2023-03-11T10:53:30.658Z,3.50
2023-03-11T10:58:32.855Z,8.40
2023-03-11T11:03:36.423Z,4.97
2023-03-11T11:08:38.626Z,4.50
2023-03-11T11:13:41.206Z,2.88
2023-03-11T11:18:49.525Z,5.97
2023-03-11T11:24:07.254Z,6.93
2023-03-11T11:29:13.233Z,5.38
2023-03-11T11:34:34.204Z,2.33
2023-03-11T11:39:59.326Z,4.57
2023-03-11T11:45:08.338Z,3.28
2023-03-11T11:50:35.774Z,7.95
2023-03-11T11:55:46.934Z,2.90
2023-03-11T12:01:28.579Z,3.20
2023-03-11T12:06:53.194Z,6.90
2023-03-11T12:12:04.316Z,7.68
2023-03-11T12:17:09.037Z,6.13
2023-03-11T12:22:21.604Z,6.93
2023-03-11T12:27:29.136Z,5.07
2023-03-11T12:32:35.265Z,8.30
2023-03-11T12:37:37.820Z,8.75
2023-03-11T12:42:41.418Z,4.63
2023-03-11T12:47:44.119Z,5.00
2023-03-11T12:52:55.607Z,5.57
2023-03-11T12:58:33.252Z,6.78
2023-03-11T13:03:57.238Z,4.50
2023-03-11T13:09:01.102Z,7.55
2023-03-11T13:14:33.171Z,10.93
2023-03-11T13:19:37.968Z,6.75
2023-03-11T13:24:50.123Z,8.77
2023-03-11T13:30:15.474Z,12.45
2023-03-11T13:35:24.936Z,6.20
2023-03-11T13:45:33.065Z,7.60
2023-03-11T13:50:44.774Z,6.13
2023-03-11T13:55:49.029Z,4.88
2023-03-11T14:01:01.141Z,8.05
2023-03-11T14:06:07.198Z,10.63
2023-03-11T14:11:13.117Z,15.48
2023-03-11T14:16:23.882Z,23.40
2023-03-11T14:21:28.727Z,17.17
2023-03-11T14:26:36.199Z,11.07
2023-03-11T14:31:42.054Z,9.52
2023-03-11T14:36:48.727Z,14.57
2023-03-11T14:41:55.949Z,10.05
2023-03-11T14:47:10.568Z,8.07
2023-03-11T14:52:22.011Z,5.10
2023-03-11T14:57:53.955Z,8.38
2023-03-11T15:03:03.597Z,12.45
2023-03-11T15:08:07.767Z,7.05
2023-03-11T15:13:16.966Z,9.52
2023-03-11T15:18:24.953Z,11.05
2023-03-11T15:23:27.961Z,18.25
2023-03-11T15:28:32.814Z,6.63
2023-03-11T15:33:35.355Z,12.23
2023-03-11T15:38:38.023Z,10.38
2023-03-11T15:43:50.511Z,10.13
2023-03-11T15:48:52.727Z,7.35
2023-03-11T15:53:56.506Z,11.00
2023-03-11T15:58:58.667Z,10.05
2023-03-11T16:04:02.144Z,9.13
2023-03-11T16:09:06.289Z,14.73
2023-03-11T16:14:17.892Z,16.73
2023-03-11T16:19:20.127Z,8.50
2023-03-11T16:24:26.754Z,13.48
2023-03-11T16:29:29.880Z,16.38
2023-03-11T16:34:32.067Z,14.50
2023-03-11T16:39:36.106Z,16.08
2023-03-11T16:44:38.322Z,13.65
2023-03-11T16:49:41.248Z,14.27
2023-03-11T16:54:43.385Z,15.70
2023-03-11T16:59:45.845Z,11.75
2023-03-11T17:04:48.255Z,22.55
2023-03-11T17:09:51.802Z,15.20
2023-03-11T17:14:54.623Z,10.90
2023-03-11T17:19:56.936Z,7.35
2023-03-11T17:24:59.166Z,10.52
2023-03-11T17:30:07.573Z,8.65
2023-03-11T17:35:10.265Z,8.93
2023-03-11T17:40:13.802Z,13.32
2023-03-11T17:45:16.071Z,6.80
2023-03-11T17:50:18.634Z,7.35
2023-03-11T17:55:20.874Z,3.38
2023-03-11T18:00:23.213Z,4.30
2023-03-11T18:05:25.381Z,11.90
2023-03-11T18:10:28.651Z,10.75
2023-03-11T18:15:30.802Z,10.38
2023-03-11T18:20:33.068Z,10.88
2023-03-11T18:25:35.187Z,9.75
2023-03-11T18:30:41.025Z,10.13
2023-03-11T18:35:43.163Z,14.48
2023-03-11T18:40:45.455Z,11.65
2023-03-11T18:45:47.617Z,15.60
2023-03-11T18:50:54.423Z,15.48
2023-03-11T18:56:08.392Z,13.40
2023-03-11T19:01:15.661Z,9.93
2023-03-11T19:06:18.448Z,9.60
2023-03-11T19:11:23.301Z,15.18
2023-03-11T19:16:27.378Z,6.35
2023-03-11T19:21:29.853Z,5.97
2023-03-11T19:26:44.271Z,5.65
2023-03-11T19:31:47.711Z,9.10
2023-03-11T19:36:49.962Z,6.80
2023-03-11T19:41:52.629Z,10.07
2023-03-11T19:46:54.944Z,36.40
2023-03-11T19:51:57.672Z,17.90
2023-03-11T19:56:59.815Z,15.68
2023-03-11T20:02:03.323Z,26.90
2023-03-11T20:07:06.323Z,26.90
2023-03-11T20:12:08.664Z,31.13
2023-03-11T20:17:10.917Z,33.60
2023-03-11T20:22:14.357Z,33.88
2023-03-11T20:27:17.795Z,24.05
2023-03-11T20:32:20.064Z,9.48
2023-03-11T20:37:22.280Z,10.95
2023-03-11T20:42:24.694Z,10.55
2023-03-11T20:47:27.014Z,13.05
2023-03-11T20:52:34.646Z,13.52
2023-03-11T20:57:37.629Z,30.95
2023-03-11T21:02:41.944Z,17.63
2023-03-11T21:07:44.337Z,20.95
2023-03-11T21:12:46.566Z,19.45
2023-03-11T21:17:48.860Z,22.52
2023-03-11T21:22:51.147Z,24.63
2023-03-11T21:27:53.321Z,23.08
2023-03-11T21:32:55.785Z,20.98
2023-03-11T21:37:58.210Z,23.80
2023-03-11T21:43:02.146Z,26.83
2023-03-11T21:48:07.169Z,19.55
2023-03-11T21:53:09.477Z,13.35
2023-03-11T21:58:11.831Z,17.85
2023-03-11T22:03:14.513Z,24.40
2023-03-11T22:08:17.452Z,22.85
2023-03-11T22:13:20.062Z,24.88
2023-03-11T22:18:22.614Z,11.75
2023-03-11T22:23:25.813Z,10.10
2023-03-11T22:28:47.513Z,18.33
2023-03-11T22:33:49.792Z,15.27
2023-03-11T22:38:52.056Z,9.20
2023-03-11T22:43:54.386Z,6.10
2023-03-11T22:48:56.683Z,9.52
2023-03-11T22:53:58.854Z,6.72
2023-03-11T22:59:01.226Z,6.75
2023-03-11T23:04:04.378Z,11.02
2023-03-11T23:09:06.706Z,10.32
2023-03-11T23:14:08.828Z,5.90
2023-03-11T23:19:11.781Z,13.40
2023-03-11T23:24:13.973Z,12.65
2023-03-11T23:29:16.225Z,6.90
2023-03-11T23:34:18.398Z,9.50
2023-03-11T23:39:21.336Z,11.82
2023-03-11T23:44:25.743Z,17.05
2023-03-11T23:49:28.345Z,22.88
2023-03-11T23:54:30.490Z,14.93
2023-03-11T23:59:33.235Z,12.10
